createdAt,value
2023-08-07T00:01:18.572Z,99558.63
2023-08-07T00:04:20.694Z,99564.06
2023-08-07T00:07:22.832Z,99556.12
2023-08-07T00:10:25.714Z,99561.91
2023-08-07T00:13:27.906Z,99563.84
2023-08-07T00:16:30.056Z,99565.94
2023-08-07T00:19:32.166Z,99562.59
2023-08-07T00:22:34.333Z,99557.66
2023-08-07T00:25:36.428Z,99554.66
2023-08-07T00:28:38.579Z,99560.44
2023-08-07T00:31:40.809Z,99566.59
2023-08-07T00:34:42.974Z,99562.69
2023-08-07T00:37:45.362Z,99573.66
2023-08-07T00:40:47.588Z,99560.78
2023-08-07T00:43:49.781Z,99566.47
2023-08-07T00:46:52.750Z,99568.69
2023-08-07T00:49:54.821Z,99566.97
2023-08-07T00:52:57.045Z,99566.72
2023-08-07T00:55:59.335Z,99569.41
2023-08-07T00:59:02.065Z,99566.31
2023-08-07T01:02:04.595Z,99566.25
2023-08-07T01:05:06.840Z,99561.69
2023-08-07T01:08:09.250Z,99566.78
2023-08-07T01:11:23.658Z,99574.53
2023-08-07T01:14:46.082Z,99568.63
2023-08-07T01:17:49.102Z,99565.87
2023-08-07T01:20:51.264Z,99563.81
2023-08-07T01:23:53.315Z,99564.84
2023-08-07T01:26:57.106Z,99573.22
2023-08-07T01:30:10.911Z,99573.28
2023-08-07T01:33:40.707Z,99576.31
2023-08-07T01:36:43.198Z,99591.94
2023-08-07T01:39:46.196Z,99580.03
2023-08-07T01:42:48.568Z,99581.34
2023-08-07T01:45:50.670Z,99585.91
2023-08-07T01:48:52.756Z,99589.41
2023-08-07T01:51:54.853Z,99588.25
2023-08-07T01:54:57.109Z,99579.47
2023-08-07T01:57:59.300Z,99594.06
2023-08-07T02:01:01.611Z,99582.75
2023-08-07T02:04:03.902Z,99584.63
2023-08-07T02:07:06.119Z,99585.59
2023-08-07T02:10:08.955Z,99585.84
2023-08-07T02:13:11.083Z,99600.59
2023-08-07T02:16:15.765Z,99591.16
2023-08-07T02:19:18.008Z,99594.41
2023-08-07T02:22:20.556Z,99597.19
2023-08-07T02:25:22.728Z,99585.94
2023-08-07T02:28:24.928Z,99595.00
2023-08-07T02:31:27.206Z,99599.47
2023-08-07T02:34:29.962Z,99601.12
2023-08-07T02:37:32.048Z,99604.66
2023-08-07T02:40:34.254Z,99599.22
2023-08-07T02:43:36.592Z,99604.19
2023-08-07T02:46:38.830Z,99599.72
2023-08-07T02:49:41.079Z,99595.59
2023-08-07T02:52:45.752Z,99592.97
2023-08-07T02:55:48.171Z,99601.84
2023-08-07T02:58:50.314Z,99607.81
2023-08-07T03:01:52.529Z,99602.50
2023-08-07T03:04:54.944Z,99602.84
2023-08-07T03:07:57.124Z,99608.53
2023-08-07T03:10:59.405Z,99606.09
2023-08-07T03:14:01.709Z,99601.06
2023-08-07T03:17:03.977Z,99589.59
2023-08-07T03:20:06.637Z,99600.44
2023-08-07T03:23:08.730Z,99591.03
2023-08-07T03:26:19.047Z,99589.69
2023-08-07T03:29:22.106Z,99594.03
2023-08-07T03:32:24.468Z,99603.31
2023-08-07T03:35:26.632Z,99611.41
2023-08-07T03:38:28.778Z,99596.06
2023-08-07T03:41:31.008Z,99595.53
2023-08-07T03:44:34.377Z,99607.81
2023-08-07T03:47:36.701Z,99601.38
2023-08-07T03:50:38.866Z,99615.47
2023-08-07T03:53:41.208Z,99622.38
2023-08-07T03:56:43.341Z,99626.94
2023-08-07T03:59:45.413Z,99633.38
2023-08-07T04:02:47.656Z,99626.66
2023-08-07T04:05:53.535Z,99635.16
2023-08-07T04:08:55.804Z,99628.13
2023-08-07T04:11:57.904Z,99635.47
2023-08-07T04:15:00.068Z,99635.50
2023-08-07T04:18:02.306Z,99629.88
2023-08-07T04:21:04.891Z,99638.66
2023-08-07T04:24:11.577Z,99637.81
2023-08-07T04:27:13.862Z,99644.09
2023-08-07T04:30:16.058Z,99643.66
2023-08-07T04:33:18.422Z,99643.63
2023-08-07T04:36:22.226Z,99658.75
2023-08-07T04:39:24.319Z,99651.63
2023-08-07T04:42:26.412Z,99649.84
2023-08-07T04:45:28.583Z,99661.41
2023-08-07T04:48:30.731Z,99653.94
2023-08-07T04:51:34.925Z,99653.66
2023-08-07T04:54:37.163Z,99646.19
2023-08-07T04:57:39.264Z,99642.69
2023-08-07T05:00:41.583Z,99642.94
2023-08-07T05:03:43.856Z,99644.38
2023-08-07T05:06:46.363Z,99648.78
2023-08-07T05:09:50.804Z,99643.66
2023-08-07T05:12:58.775Z,99638.62
2023-08-07T05:16:01.209Z,99644.41
2023-08-07T05:19:03.472Z,99634.41
2023-08-07T05:22:05.665Z,99632.66
2023-08-07T05:25:08.137Z,99643.94
2023-08-07T05:28:10.316Z,99643.91
2023-08-07T05:31:12.490Z,99644.81
2023-08-07T05:34:14.772Z,99638.88
2023-08-07T05:37:16.927Z,99640.81
2023-08-07T05:40:19.388Z,99661.31
2023-08-07T05:43:21.672Z,99666.06
2023-08-07T05:46:23.840Z,99668.06
2023-08-07T05:49:26.720Z,99670.66
2023-08-07T05:52:29.082Z,99670.66
2023-08-07T05:55:33.723Z,99675.91
2023-08-07T05:58:36.276Z,99685.31
2023-08-07T06:01:38.687Z,99682.34
2023-08-07T06:04:42.152Z,99702.31
2023-08-07T06:07:44.530Z,99702.78
2023-08-07T06:10:46.794Z,99707.53
2023-08-07T06:13:50.146Z,99713.38
2023-08-07T06:16:53.222Z,99721.28
2023-08-07T06:19:55.340Z,99730.31
2023-08-07T06:22:57.560Z,99728.56
2023-08-07T06:25:59.947Z,99735.97
2023-08-07T06:29:02.236Z,99737.66
2023-08-07T06:32:07.677Z,99731.69
2023-08-07T06:35:10.383Z,99740.19
2023-08-07T06:38:15.484Z,99755.53
2023-08-07T06:41:17.793Z,99750.53
2023-08-07T06:44:19.937Z,99756.56
2023-08-07T06:47:22.135Z,99761.66
2023-08-07T06:50:25.428Z,99775.84
2023-08-07T06:53:27.646Z,99757.53
2023-08-07T06:56:30.638Z,99758.25
2023-08-07T06:59:33.136Z,99771.50
2023-08-07T07:02:37.466Z,99762.94
2023-08-07T07:05:40.148Z,99757.03
2023-08-07T07:08:42.579Z,99762.50
2023-08-07T07:11:45.054Z,99767.16
2023-08-07T07:14:47.202Z,99764.03
2023-08-07T07:17:49.558Z,99756.81
2023-08-07T07:21:01.746Z,99767.53
2023-08-07T07:24:04.315Z,99762.47
2023-08-07T07:27:06.981Z,99760.22
2023-08-07T07:30:09.588Z,99766.97
2023-08-07T07:33:12.115Z,99776.56
2023-08-07T07:36:18.986Z,99779.37
2023-08-07T07:39:22.085Z,99789.88
2023-08-07T07:42:24.271Z,99772.34
2023-08-07T07:45:26.447Z,99786.50
2023-08-07T07:48:31.084Z,99791.16
2023-08-07T07:51:33.358Z,99792.03
2023-08-07T07:54:36.389Z,99799.38
2023-08-07T07:57:38.809Z,99800.38
2023-08-07T08:00:40.897Z,99795.53
2023-08-07T08:03:44.767Z,99793.91
2023-08-07T08:06:49.363Z,99810.63
2023-08-07T08:09:52.041Z,99804.94
2023-08-07T08:12:57.336Z,99825.50
2023-08-07T08:15:59.727Z,99817.59
2023-08-07T08:19:02.184Z,99828.72
2023-08-07T08:22:04.689Z,99833.66
2023-08-07T08:25:07.930Z,99834.06
2023-08-07T08:28:10.086Z,99834.94
2023-08-07T08:31:12.316Z,99844.47
2023-08-07T08:34:14.506Z,99845.97
2023-08-07T08:37:16.771Z,99852.03
2023-08-07T08:40:20.629Z,99847.56
2023-08-07T08:43:22.786Z,99859.81
2023-08-07T08:46:25.786Z,99844.00
2023-08-07T08:49:33.983Z,99857.31
2023-08-07T08:52:38.985Z,99854.97
2023-08-07T08:55:44.068Z,99870.94
2023-08-07T08:58:46.668Z,99875.19
2023-08-07T09:01:50.601Z,99877.88
2023-08-07T09:04:52.697Z,99880.34
2023-08-07T09:07:55.133Z,99873.13
2023-08-07T09:10:57.489Z,99873.13
2023-08-07T09:14:01.726Z,99878.09
2023-08-07T09:17:04.794Z,99881.41
2023-08-07T09:20:14.535Z,99874.25
2023-08-07T09:23:20.578Z,99880.75
2023-08-07T09:26:27.130Z,99883.44
2023-08-07T09:29:29.738Z,99883.56
2023-08-07T09:32:31.864Z,99879.66
2023-08-07T09:35:35.036Z,99876.09
2023-08-07T09:38:37.334Z,99874.31
2023-08-07T09:41:41.992Z,99881.25
2023-08-07T09:44:46.323Z,99883.09
2023-08-07T09:47:49.271Z,99894.28
2023-08-07T09:50:51.848Z,99892.78
2023-08-07T09:53:54.128Z,99902.41
2023-08-07T09:56:59.097Z,99910.31
2023-08-07T10:00:01.906Z,99920.59
2023-08-07T10:03:04.682Z,99911.69
2023-08-07T10:06:07.489Z,99915.53
2023-08-07T10:09:10.264Z,99919.50
2023-08-07T10:12:12.881Z,99917.44
2023-08-07T10:15:15.813Z,99911.25
2023-08-07T10:18:17.996Z,99916.69
2023-08-07T10:21:20.761Z,99912.66
2023-08-07T10:24:24.277Z,99929.88
2023-08-07T10:27:27.462Z,99931.00
2023-08-07T10:30:30.980Z,99928.72
2023-08-07T10:33:33.524Z,99929.78
2023-08-07T10:36:37.102Z,99923.09
2023-08-07T10:40:03.565Z,99937.63
2023-08-07T10:43:08.753Z,99927.94
2023-08-07T10:46:13.720Z,99935.97
2023-08-07T10:49:33.477Z,99950.00
2023-08-07T10:52:42.665Z,99944.78
2023-08-07T10:55:46.698Z,99936.06
2023-08-07T10:58:54.303Z,99937.56
2023-08-07T11:01:56.839Z,99940.28
2023-08-07T11:04:59.158Z,99953.22
2023-08-07T11:08:04.024Z,99945.91
2023-08-07T11:11:07.293Z,99961.81
2023-08-07T11:14:20.144Z,99976.81
2023-08-07T11:17:22.823Z,99976.66
2023-08-07T11:20:26.729Z,99958.72
2023-08-07T11:23:29.505Z,99963.53
2023-08-07T11:26:31.481Z,99950.91
2023-08-07T11:29:34.582Z,99955.50
2023-08-07T11:32:37.774Z,99958.06
2023-08-07T11:35:43.569Z,99971.00
2023-08-07T11:38:46.038Z,99960.12
2023-08-07T11:41:48.498Z,99961.19
2023-08-07T11:44:50.750Z,99972.00
2023-08-07T11:47:57.022Z,99952.66
2023-08-07T11:51:00.638Z,99961.72
2023-08-07T11:54:03.970Z,99965.72
2023-08-07T11:57:18.768Z,99974.53
2023-08-07T12:00:21.557Z,99970.34
2023-08-07T12:03:32.209Z,99978.81
2023-08-07T12:06:35.547Z,99985.28
2023-08-07T12:09:38.328Z,99970.37
2023-08-07T12:12:40.726Z,99984.09
2023-08-07T12:15:43.708Z,99985.09
2023-08-07T12:18:52.935Z,99971.56
2023-08-07T12:21:55.090Z,99970.13
2023-08-07T12:24:57.204Z,99960.72
2023-08-07T12:27:59.550Z,99968.69
2023-08-07T12:31:01.813Z,99966.47
2023-08-07T12:37:15.120Z,99977.75
2023-08-07T12:43:33.011Z,99989.44
2023-08-07T12:46:39.868Z,99995.13
2023-08-07T12:49:42.888Z,99989.38
2023-08-07T12:52:45.490Z,100000.22
2023-08-07T12:55:50.837Z,100002.56
2023-08-07T12:58:53.337Z,100006.19
2023-08-07T13:01:55.766Z,100014.94
2023-08-07T13:04:58.569Z,100012.88
2023-08-07T13:08:02.436Z,100017.16
2023-08-07T13:11:06.157Z,100027.97
2023-08-07T13:14:08.378Z,100015.34
2023-08-07T13:17:10.555Z,100033.91
2023-08-07T13:20:15.001Z,100036.22
2023-08-07T13:23:17.662Z,100032.12
2023-08-07T13:26:19.860Z,100036.63
2023-08-07T13:29:22.987Z,100028.91
2023-08-07T13:32:26.638Z,100035.53
2023-08-07T13:35:28.830Z,100026.63
2023-08-07T13:38:31.056Z,100050.22
2023-08-07T13:41:33.768Z,100042.91
2023-08-07T13:44:36.263Z,100041.81
2023-08-07T13:47:38.909Z,100043.09
2023-08-07T13:50:42.160Z,100050.34
2023-08-07T13:53:44.908Z,100065.44
2023-08-07T13:56:47.273Z,100065.59
2023-08-07T13:59:50.658Z,100065.50
2023-08-07T14:02:54.081Z,100066.91
2023-08-07T14:05:56.394Z,100069.28
2023-08-07T14:09:00.959Z,100074.44
2023-08-07T14:12:03.324Z,100078.06
2023-08-07T14:15:06.491Z,100080.44
2023-08-07T14:18:09.046Z,100099.25
2023-08-07T14:21:11.351Z,100090.84
2023-08-07T14:24:15.981Z,100101.06
2023-08-07T14:27:18.504Z,100107.16
2023-08-07T14:30:23.310Z,100111.00
2023-08-07T14:33:25.498Z,100105.19
2023-08-07T14:36:27.796Z,100109.00
2023-08-07T14:39:30.039Z,100101.50
2023-08-07T14:42:32.244Z,100101.47
2023-08-07T14:45:34.518Z,100102.44
2023-08-07T14:48:37.065Z,100113.53
2023-08-07T14:51:39.476Z,100110.75
2023-08-07T14:54:41.710Z,100113.28
2023-08-07T14:57:43.964Z,100108.69
2023-08-07T15:00:46.706Z,100111.81
2023-08-07T15:03:48.980Z,100112.75
2023-08-07T15:06:51.716Z,100116.69
2023-08-07T15:09:54.027Z,100106.00
2023-08-07T15:12:57.221Z,100116.13
2023-08-07T15:15:59.686Z,100110.16
2023-08-07T15:19:04.028Z,100118.31
2023-08-07T15:22:06.483Z,100120.91
2023-08-07T15:25:09.589Z,100118.53
2023-08-07T15:28:11.636Z,100124.31
2023-08-07T15:31:13.700Z,100118.09
2023-08-07T15:34:15.800Z,100128.44
2023-08-07T15:37:18.072Z,100118.66
2023-08-07T15:40:20.608Z,100122.19
2023-08-07T15:43:23.200Z,100109.44
2023-08-07T15:46:25.736Z,100113.25
2023-08-07T15:49:27.990Z,100108.53
2023-08-07T15:52:30.249Z,100104.97
2023-08-07T15:55:36.378Z,100114.50
2023-08-07T15:58:38.578Z,100116.81
2023-08-07T16:01:40.942Z,100115.91
2023-08-07T16:04:46.543Z,100120.25
2023-08-07T16:07:50.884Z,100112.91
2023-08-07T16:10:53.917Z,100115.78
2023-08-07T16:13:56.093Z,100100.50
2023-08-07T16:16:59.303Z,100112.91
2023-08-07T16:20:01.586Z,100106.66
2023-08-07T16:23:04.036Z,100109.00
2023-08-07T16:26:07.018Z,100099.22
2023-08-07T16:29:09.181Z,100106.28
2023-08-07T16:32:11.487Z,100107.31
2023-08-07T16:35:14.998Z,100109.62
2023-08-07T16:38:17.101Z,100112.78
2023-08-07T16:41:19.216Z,100107.81
2023-08-07T16:44:21.571Z,100115.22
2023-08-07T16:47:23.978Z,100109.97
2023-08-07T16:50:28.165Z,100114.87
2023-08-07T16:53:30.536Z,100115.81
2023-08-07T16:56:32.698Z,100117.28
2023-08-07T16:59:34.902Z,100111.72
2023-08-07T17:02:37.649Z,100111.66
2023-08-07T17:05:40.033Z,100115.03
2023-08-07T17:08:42.327Z,100121.78
2023-08-07T17:11:44.518Z,100133.72
2023-08-07T17:14:46.833Z,100128.94
2023-08-07T17:17:49.591Z,100134.25
2023-08-07T17:20:51.797Z,100122.03
2023-08-07T17:23:53.922Z,100127.28
2023-08-07T17:26:56.714Z,100121.19
2023-08-07T17:29:59.197Z,100126.72
2023-08-07T17:33:01.461Z,100124.34
2023-08-07T17:36:03.734Z,100140.38
2023-08-07T17:39:06.028Z,100138.56
2023-08-07T17:42:08.627Z,100136.03
2023-08-07T17:45:13.304Z,100132.88
2023-08-07T17:48:15.814Z,100144.22
2023-08-07T17:51:18.017Z,100136.31
2023-08-07T17:54:20.271Z,100138.22
2023-08-07T17:57:22.379Z,100142.81
2023-08-07T18:00:24.882Z,100146.72
2023-08-07T18:03:27.022Z,100141.91
2023-08-07T18:06:29.896Z,100150.50
2023-08-07T18:09:31.985Z,100164.94
2023-08-07T18:12:34.070Z,100172.44
2023-08-07T18:15:36.220Z,100174.12
2023-08-07T18:18:38.409Z,100172.00
2023-08-07T18:21:40.526Z,100178.12
2023-08-07T18:24:43.735Z,100179.59
2023-08-07T18:27:45.909Z,100176.56
2023-08-07T18:30:48.077Z,100181.16
2023-08-07T18:33:50.403Z,100192.84
2023-08-07T18:36:52.849Z,100196.37
2023-08-07T18:39:55.041Z,100205.31
2023-08-07T18:42:57.222Z,100198.09
2023-08-07T18:45:59.332Z,100207.44
2023-08-07T18:49:01.733Z,100225.72
2023-08-07T18:52:05.512Z,100210.16
2023-08-07T18:55:08.674Z,100227.00
2023-08-07T18:58:10.877Z,100231.22
2023-08-07T19:01:13.132Z,100235.81
2023-08-07T19:04:16.903Z,100236.13
2023-08-07T19:07:19.126Z,100242.09
2023-08-07T19:10:21.451Z,100246.44
2023-08-07T19:13:23.556Z,100254.16
2023-08-07T19:16:25.824Z,100263.53
2023-08-07T19:19:28.129Z,100270.78
2023-08-07T19:22:31.648Z,100268.13
2023-08-07T19:25:33.925Z,100266.53
2023-08-07T19:28:36.157Z,100280.25
2023-08-07T19:31:38.377Z,100279.47
2023-08-07T19:34:40.536Z,100266.31
2023-08-07T19:37:43.003Z,100261.56
2023-08-07T19:40:45.270Z,100262.97
2023-08-07T19:43:49.141Z,100272.34
2023-08-07T19:46:51.317Z,100262.69
2023-08-07T19:49:53.446Z,100263.09
2023-08-07T19:52:55.968Z,100262.97
2023-08-07T19:55:58.138Z,100272.34
2023-08-07T19:59:01.551Z,100268.41
2023-08-07T20:02:05.713Z,100270.22
2023-08-07T20:05:08.271Z,100268.97
2023-08-07T20:08:11.194Z,100263.22
2023-08-07T20:11:13.457Z,100257.72
2023-08-07T20:14:15.619Z,100260.03
2023-08-07T20:17:17.965Z,100270.66
2023-08-07T20:20:21.371Z,100262.06
2023-08-07T20:23:24.114Z,100264.31
2023-08-07T20:26:26.297Z,100264.06
2023-08-07T20:29:28.768Z,100279.47
2023-08-07T20:32:31.222Z,100280.03
2023-08-07T20:35:33.401Z,100287.38
2023-08-07T20:38:35.801Z,100281.16
2023-08-07T20:41:38.143Z,100284.09
2023-08-07T20:44:40.317Z,100298.37
2023-08-07T20:47:42.949Z,100293.53
2023-08-07T20:50:45.143Z,100295.84
2023-08-07T20:53:47.738Z,100294.34
2023-08-07T20:56:50.046Z,100298.09
2023-08-07T20:59:52.217Z,100296.59
2023-08-07T21:02:54.352Z,100282.69
2023-08-07T21:05:56.559Z,100286.06
2023-08-07T21:08:58.657Z,100292.69
2023-08-07T21:12:01.151Z,100291.84
2023-08-07T21:15:05.505Z,100296.25
2023-08-07T21:18:07.675Z,100286.50
2023-08-07T21:21:09.934Z,100284.22
2023-08-07T21:24:14.551Z,100291.59
2023-08-07T21:27:18.179Z,100290.50
2023-08-07T21:30:20.321Z,100295.97
2023-08-07T21:33:24.550Z,100295.63
2023-08-07T21:36:26.809Z,100291.16
2023-08-07T21:39:29.068Z,100290.31
2023-08-07T21:42:31.678Z,100294.97
2023-08-07T21:45:34.061Z,100296.31
2023-08-07T21:48:36.326Z,100299.28
2023-08-07T21:51:38.433Z,100292.75
2023-08-07T21:54:40.637Z,100300.22
2023-08-07T21:57:42.798Z,100312.72
2023-08-07T22:00:47.722Z,100303.00
2023-08-07T22:03:49.883Z,100315.19
2023-08-07T22:06:52.080Z,100325.09
2023-08-07T22:09:54.209Z,100323.56
2023-08-07T22:12:56.430Z,100319.25
2023-08-07T22:15:58.698Z,100318.19
2023-08-07T22:19:00.847Z,100311.53
2023-08-07T22:22:03.131Z,100318.00
2023-08-07T22:25:06.297Z,100315.66
2023-08-07T22:28:09.160Z,100308.84
2023-08-07T22:31:11.383Z,100324.53
2023-08-07T22:34:13.484Z,100313.44
2023-08-07T22:37:15.593Z,100315.09
2023-08-07T22:40:17.764Z,100312.84
2023-08-07T22:43:19.911Z,100326.53
2023-08-07T22:46:22.151Z,100325.06
2023-08-07T22:49:24.250Z,100332.41
2023-08-07T22:52:26.390Z,100338.03
2023-08-07T22:55:28.599Z,100346.69
2023-08-07T22:58:30.720Z,100342.88
2023-08-07T23:01:32.942Z,100346.00
2023-08-07T23:04:35.097Z,100341.94
2023-08-07T23:07:37.757Z,100342.16
2023-08-07T23:10:39.944Z,100350.25
2023-08-07T23:13:42.079Z,100344.91
2023-08-07T23:16:45.631Z,100346.97
2023-08-07T23:19:47.991Z,100355.81
2023-08-07T23:22:50.137Z,100353.75
2023-08-07T23:25:52.352Z,100350.97
2023-08-07T23:28:54.655Z,100358.81
2023-08-07T23:31:57.077Z,100352.28
2023-08-07T23:34:59.634Z,100361.00
2023-08-07T23:38:01.782Z,100359.94
2023-08-07T23:41:06.069Z,100364.16
2023-08-07T23:44:08.147Z,100373.09
2023-08-07T23:47:10.602Z,100371.72
2023-08-07T23:50:12.809Z,100369.66
2023-08-07T23:53:14.913Z,100370.06
2023-08-07T23:56:17.262Z,100365.91
2023-08-07T23:59:19.656Z,100365.44
